sensor_id;sensor_type;location;lat;lon;timestamp;P1;durP1;ratioP1;P2;durP2;ratioP2
56081;SDS011;41957;52.060;5.138;2022-11-15T00:00:03;17.55;;;8.05;;
56081;SDS011;41957;52.060;5.138;2022-11-15T00:02:29;17.08;;;7.47;;
56081;SDS011;41957;52.060;5.138;2022-11-15T00:04:54;16.73;;;7.03;;
56081;SDS011;41957;52.060;5.138;2022-11-15T00:07:19;17.15;;;7.03;;
56081;SDS011;41957;52.060;5.138;2022-11-15T00:09:45;16.35;;;7.15;;
56081;SDS011;41957;52.060;5.138;2022-11-15T00:12:10;18.77;;;7.55;;
56081;SDS011;41957;52.060;5.138;2022-11-15T00:14:35;19.83;;;8.02;;
56081;SDS011;41957;52.060;5.138;2022-11-15T00:17:01;17.33;;;7.47;;
56081;SDS011;41957;52.060;5.138;2022-11-15T00:19:26;18.20;;;7.78;;
56081;SDS011;41957;52.060;5.138;2022-11-15T00:21:51;19.45;;;7.57;;
56081;SDS011;41957;52.060;5.138;2022-11-15T00:24:17;15.95;;;6.93;;
56081;SDS011;41957;52.060;5.138;2022-11-15T00:26:42;17.30;;;7.43;;
56081;SDS011;41957;52.060;5.138;2022-11-15T00:29:07;16.65;;;7.47;;
56081;SDS011;41957;52.060;5.138;2022-11-15T00:31:33;18.23;;;7.35;;
56081;SDS011;41957;52.060;5.138;2022-11-15T00:33:58;16.65;;;7.53;;
56081;SDS011;41957;52.060;5.138;2022-11-15T00:36:23;18.02;;;7.68;;
56081;SDS011;41957;52.060;5.138;2022-11-15T00:38:49;16.20;;;7.30;;
56081;SDS011;41957;52.060;5.138;2022-11-15T00:41:14;16.95;;;7.28;;
56081;SDS011;41957;52.060;5.138;2022-11-15T00:43:39;16.77;;;7.75;;
56081;SDS011;41957;52.060;5.138;2022-11-15T00:46:05;18.52;;;7.82;;
56081;SDS011;41957;52.060;5.138;2022-11-15T00:48:30;19.83;;;8.32;;
56081;SDS011;41957;52.060;5.138;2022-11-15T00:50:56;18.33;;;7.65;;
56081;SDS011;41957;52.060;5.138;2022-11-15T00:53:22;18.05;;;7.53;;
56081;SDS011;41957;52.060;5.138;2022-11-15T00:55:47;19.23;;;7.93;;
56081;SDS011;41957;52.060;5.138;2022-11-15T00:58:12;18.58;;;7.97;;
56081;SDS011;41957;52.060;5.138;2022-11-15T01:00:38;18.65;;;7.88;;
56081;SDS011;41957;52.060;5.138;2022-11-15T01:03:03;17.83;;;8.05;;
56081;SDS011;41957;52.060;5.138;2022-11-15T01:05:28;15.95;;;7.22;;
56081;SDS011;41957;52.060;5.138;2022-11-15T01:07:54;17.55;;;7.78;;
56081;SDS011;41957;52.060;5.138;2022-11-15T01:10:21;17.23;;;7.90;;
56081;SDS011;41957;52.060;5.138;2022-11-15T01:12:47;19.00;;;8.48;;
56081;SDS011;41957;52.060;5.138;2022-11-15T01:15:13;18.55;;;8.32;;
56081;SDS011;41957;52.060;5.138;2022-11-15T01:17:39;19.38;;;8.07;;
56081;SDS011;41957;52.060;5.138;2022-11-15T01:20:04;18.42;;;7.55;;
56081;SDS011;41957;52.060;5.138;2022-11-15T01:22:30;17.77;;;7.70;;
56081;SDS011;41957;52.060;5.138;2022-11-15T01:24:55;20.20;;;8.82;;
56081;SDS011;41957;52.060;5.138;2022-11-15T01:27:20;18.27;;;7.40;;
56081;SDS011;41957;52.060;5.138;2022-11-15T01:29:46;18.33;;;7.57;;
56081;SDS011;41957;52.060;5.138;2022-11-15T01:32:11;19.25;;;8.40;;
56081;SDS011;41957;52.060;5.138;2022-11-15T01:34:36;17.55;;;7.93;;
56081;SDS011;41957;52.060;5.138;2022-11-15T01:37:02;17.42;;;8.57;;
56081;SDS011;41957;52.060;5.138;2022-11-15T01:39:27;17.58;;;7.97;;
56081;SDS011;41957;52.060;5.138;2022-11-15T01:41:53;16.70;;;7.55;;
56081;SDS011;41957;52.060;5.138;2022-11-15T01:47:00;19.15;;;8.40;;
56081;SDS011;41957;52.060;5.138;2022-11-15T01:49:29;17.83;;;8.10;;
56081;SDS011;41957;52.060;5.138;2022-11-15T01:51:58;18.88;;;8.00;;
56081;SDS011;41957;52.060;5.138;2022-11-15T01:54:26;18.50;;;8.80;;
56081;SDS011;41957;52.060;5.138;2022-11-15T01:56:57;20.35;;;8.10;;
56081;SDS011;41957;52.060;5.138;2022-11-15T01:59:26;19.08;;;8.63;;
56081;SDS011;41957;52.060;5.138;2022-11-15T02:01:52;21.02;;;8.85;;
56081;SDS011;41957;52.060;5.138;2022-11-15T02:04:22;18.58;;;8.15;;
56081;SDS011;41957;52.060;5.138;2022-11-15T02:06:48;18.77;;;7.70;;
56081;SDS011;41957;52.060;5.138;2022-11-15T02:09:14;18.92;;;8.02;;
56081;SDS011;41957;52.060;5.138;2022-11-15T02:11:40;19.00;;;7.97;;
56081;SDS011;41957;52.060;5.138;2022-11-15T02:14:06;19.23;;;8.30;;
56081;SDS011;41957;52.060;5.138;2022-11-15T02:16:41;18.92;;;8.32;;
56081;SDS011;41957;52.060;5.138;2022-11-15T02:41:13;18.48;;;8.13;;
56081;SDS011;41957;52.060;5.138;2022-11-15T02:43:46;17.80;;;8.23;;
56081;SDS011;41957;52.060;5.138;2022-11-15T02:46:38;18.65;;;8.13;;
56081;SDS011;41957;52.060;5.138;2022-11-15T02:52:19;19.50;;;8.07;;
56081;SDS011;41957;52.060;5.138;2022-11-15T02:54:59;19.38;;;7.82;;
56081;SDS011;41957;52.060;5.138;2022-11-15T03:13:27;21.50;;;8.15;;
56081;SDS011;41957;52.060;5.138;2022-11-15T03:16:04;17.60;;;7.78;;
56081;SDS011;41957;52.060;5.138;2022-11-15T03:18:40;17.58;;;8.52;;
56081;SDS011;41957;52.060;5.138;2022-11-15T03:21:09;17.80;;;8.20;;
56081;SDS011;41957;52.060;5.138;2022-11-15T03:23:38;17.38;;;7.90;;
56081;SDS011;41957;52.060;5.138;2022-11-15T03:26:07;18.85;;;7.97;;
56081;SDS011;41957;52.060;5.138;2022-11-15T03:28:37;18.52;;;7.75;;
56081;SDS011;41957;52.060;5.138;2022-11-15T03:31:18;17.67;;;7.78;;
56081;SDS011;41957;52.060;5.138;2022-11-15T03:34:04;19.67;;;7.85;;
56081;SDS011;41957;52.060;5.138;2022-11-15T03:36:34;16.33;;;7.40;;
56081;SDS011;41957;52.060;5.138;2022-11-15T03:39:00;16.15;;;6.93;;
56081;SDS011;41957;52.060;5.138;2022-11-15T03:41:35;18.58;;;7.60;;
56081;SDS011;41957;52.060;5.138;2022-11-15T03:49:32;17.08;;;7.70;;
56081;SDS011;41957;52.060;5.138;2022-11-15T03:52:00;18.65;;;8.05;;
56081;SDS011;41957;52.060;5.138;2022-11-15T03:54:28;16.48;;;7.63;;
56081;SDS011;41957;52.060;5.138;2022-11-15T03:56:53;17.88;;;7.80;;
56081;SDS011;41957;52.060;5.138;2022-11-15T03:59:19;19.20;;;7.65;;
56081;SDS011;41957;52.060;5.138;2022-11-15T04:01:44;15.57;;;6.88;;
56081;SDS011;41957;52.060;5.138;2022-11-15T04:04:10;17.77;;;7.75;;
56081;SDS011;41957;52.060;5.138;2022-11-15T04:06:35;17.27;;;6.97;;
56081;SDS011;41957;52.060;5.138;2022-11-15T04:09:00;15.52;;;7.00;;
56081;SDS011;41957;52.060;5.138;2022-11-15T04:11:26;15.82;;;7.35;;
56081;SDS011;41957;52.060;5.138;2022-11-15T04:13:51;14.93;;;7.10;;
56081;SDS011;41957;52.060;5.138;2022-11-15T04:16:16;17.40;;;7.65;;
56081;SDS011;41957;52.060;5.138;2022-11-15T04:18:42;17.20;;;7.32;;
56081;SDS011;41957;52.060;5.138;2022-11-15T04:21:07;16.95;;;7.28;;
56081;SDS011;41957;52.060;5.138;2022-11-15T04:23:52;18.58;;;7.85;;
56081;SDS011;41957;52.060;5.138;2022-11-15T04:26:36;16.02;;;6.97;;
56081;SDS011;41957;52.060;5.138;2022-11-15T04:29:01;16.55;;;6.75;;
56081;SDS011;41957;52.060;5.138;2022-11-15T04:31:45;17.67;;;7.60;;
56081;SDS011;41957;52.060;5.138;2022-11-15T04:34:11;16.67;;;7.15;;
56081;SDS011;41957;52.060;5.138;2022-11-15T04:36:36;15.18;;;7.00;;
56081;SDS011;41957;52.060;5.138;2022-11-15T04:39:20;14.35;;;6.63;;
56081;SDS011;41957;52.060;5.138;2022-11-15T04:41:45;16.35;;;6.90;;
56081;SDS011;41957;52.060;5.138;2022-11-15T04:44:10;15.77;;;6.68;;
56081;SDS011;41957;52.060;5.138;2022-11-15T04:46:36;16.75;;;7.25;;
56081;SDS011;41957;52.060;5.138;2022-11-15T04:49:01;15.43;;;6.50;;
56081;SDS011;41957;52.060;5.138;2022-11-15T04:51:27;15.43;;;7.03;;
56081;SDS011;41957;52.060;5.138;2022-11-15T04:53:52;15.00;;;6.63;;
56081;SDS011;41957;52.060;5.138;2022-11-15T04:56:17;16.67;;;7.18;;
56081;SDS011;41957;52.060;5.138;2022-11-15T04:58:43;14.75;;;6.65;;
56081;SDS011;41957;52.060;5.138;2022-11-15T05:01:08;15.02;;;6.68;;
56081;SDS011;41957;52.060;5.138;2022-11-15T05:03:39;15.13;;;6.72;;
56081;SDS011;41957;52.060;5.138;2022-11-15T05:06:23;15.00;;;6.25;;
56081;SDS011;41957;52.060;5.138;2022-11-15T05:08:48;14.77;;;6.53;;
56081;SDS011;41957;52.060;5.138;2022-11-15T05:11:14;14.93;;;6.75;;
56081;SDS011;41957;52.060;5.138;2022-11-15T05:13:39;16.00;;;6.82;;
56081;SDS011;41957;52.060;5.138;2022-11-15T05:16:04;14.52;;;6.45;;
56081;SDS011;41957;52.060;5.138;2022-11-15T05:18:30;14.88;;;6.53;;
56081;SDS011;41957;52.060;5.138;2022-11-15T05:20:55;14.13;;;6.13;;
56081;SDS011;41957;52.060;5.138;2022-11-15T05:23:21;16.50;;;6.40;;
56081;SDS011;41957;52.060;5.138;2022-11-15T05:25:46;14.63;;;6.03;;
56081;SDS011;41957;52.060;5.138;2022-11-15T05:28:12;14.23;;;6.00;;
56081;SDS011;41957;52.060;5.138;2022-11-15T05:30:37;14.80;;;6.20;;
56081;SDS011;41957;52.060;5.138;2022-11-15T05:33:03;14.25;;;6.05;;
56081;SDS011;41957;52.060;5.138;2022-11-15T05:35:34;15.00;;;6.38;;
56081;SDS011;41957;52.060;5.138;2022-11-15T05:38:04;15.07;;;6.15;;
56081;SDS011;41957;52.060;5.138;2022-11-15T05:40:30;13.55;;;6.15;;
56081;SDS011;41957;52.060;5.138;2022-11-15T05:42:56;14.50;;;6.15;;
56081;SDS011;41957;52.060;5.138;2022-11-15T05:45:23;14.38;;;5.95;;
56081;SDS011;41957;52.060;5.138;2022-11-15T05:47:48;14.50;;;5.90;;
56081;SDS011;41957;52.060;5.138;2022-11-15T05:50:16;14.35;;;6.10;;
56081;SDS011;41957;52.060;5.138;2022-11-15T05:52:43;14.63;;;5.80;;
56081;SDS011;41957;52.060;5.138;2022-11-15T05:55:10;13.23;;;5.82;;
56081;SDS011;41957;52.060;5.138;2022-11-15T05:57:36;13.15;;;5.75;;
56081;SDS011;41957;52.060;5.138;2022-11-15T06:00:03;14.32;;;6.03;;
56081;SDS011;41957;52.060;5.138;2022-11-15T06:02:28;14.02;;;5.97;;
56081;SDS011;41957;52.060;5.138;2022-11-15T06:04:54;14.60;;;5.90;;
56081;SDS011;41957;52.060;5.138;2022-11-15T06:07:19;16.02;;;6.13;;
56081;SDS011;41957;52.060;5.138;2022-11-15T06:09:44;14.65;;;5.90;;
56081;SDS011;41957;52.060;5.138;2022-11-15T06:12:10;15.15;;;6.00;;
56081;SDS011;41957;52.060;5.138;2022-11-15T06:14:35;14.38;;;6.05;;
56081;SDS011;41957;52.060;5.138;2022-11-15T06:17:00;15.88;;;6.63;;
56081;SDS011;41957;52.060;5.138;2022-11-15T06:19:26;15.23;;;6.03;;
56081;SDS011;41957;52.060;5.138;2022-11-15T06:21:52;15.50;;;6.30;;
56081;SDS011;41957;52.060;5.138;2022-11-15T06:24:17;13.85;;;5.82;;
56081;SDS011;41957;52.060;5.138;2022-11-15T06:26:42;14.27;;;6.15;;
56081;SDS011;41957;52.060;5.138;2022-11-15T06:29:08;15.23;;;6.05;;
56081;SDS011;41957;52.060;5.138;2022-11-15T06:31:33;14.80;;;6.18;;
56081;SDS011;41957;52.060;5.138;2022-11-15T06:33:59;14.93;;;6.35;;
56081;SDS011;41957;52.060;5.138;2022-11-15T06:36:24;16.33;;;6.47;;
56081;SDS011;41957;52.060;5.138;2022-11-15T06:38:50;15.15;;;6.10;;
56081;SDS011;41957;52.060;5.138;2022-11-15T06:41:16;15.30;;;6.20;;
56081;SDS011;41957;52.060;5.138;2022-11-15T06:43:42;15.02;;;6.20;;
56081;SDS011;41957;52.060;5.138;2022-11-15T06:46:08;15.05;;;6.28;;
56081;SDS011;41957;52.060;5.138;2022-11-15T06:48:34;15.35;;;6.43;;
56081;SDS011;41957;52.060;5.138;2022-11-15T06:51:01;20.17;;;6.32;;
56081;SDS011;41957;52.060;5.138;2022-11-15T06:53:28;15.18;;;6.78;;
56081;SDS011;41957;52.060;5.138;2022-11-15T06:55:57;16.00;;;6.30;;
56081;SDS011;41957;52.060;5.138;2022-11-15T06:58:23;16.48;;;6.57;;
56081;SDS011;41957;52.060;5.138;2022-11-15T07:00:49;20.48;;;7.00;;
56081;SDS011;41957;52.060;5.138;2022-11-15T07:03:14;17.45;;;5.88;;
56081;SDS011;41957;52.060;5.138;2022-11-15T07:05:39;17.42;;;5.90;;
56081;SDS011;41957;52.060;5.138;2022-11-15T07:08:05;14.32;;;6.00;;
56081;SDS011;41957;52.060;5.138;2022-11-15T07:10:30;14.55;;;6.10;;
56081;SDS011;41957;52.060;5.138;2022-11-15T07:12:55;17.98;;;6.50;;
56081;SDS011;41957;52.060;5.138;2022-11-15T07:15:25;15.88;;;6.00;;
56081;SDS011;41957;52.060;5.138;2022-11-15T07:17:50;16.33;;;6.07;;
56081;SDS011;41957;52.060;5.138;2022-11-15T07:20:16;17.08;;;5.65;;
56081;SDS011;41957;52.060;5.138;2022-11-15T07:22:42;14.23;;;5.78;;
56081;SDS011;41957;52.060;5.138;2022-11-15T07:25:10;19.45;;;6.40;;
56081;SDS011;41957;52.060;5.138;2022-11-15T07:27:36;15.25;;;5.75;;
56081;SDS011;41957;52.060;5.138;2022-11-15T07:30:02;14.48;;;5.88;;
56081;SDS011;41957;52.060;5.138;2022-11-15T07:32:28;15.05;;;5.63;;
56081;SDS011;41957;52.060;5.138;2022-11-15T07:34:53;13.85;;;5.47;;
56081;SDS011;41957;52.060;5.138;2022-11-15T07:37:19;13.30;;;5.20;;
56081;SDS011;41957;52.060;5.138;2022-11-15T07:39:44;16.83;;;6.00;;
56081;SDS011;41957;52.060;5.138;2022-11-15T07:42:09;17.75;;;6.28;;
56081;SDS011;41957;52.060;5.138;2022-11-15T07:44:54;16.90;;;5.68;;
56081;SDS011;41957;52.060;5.138;2022-11-15T07:47:19;14.38;;;5.22;;
56081;SDS011;41957;52.060;5.138;2022-11-15T07:49:45;16.13;;;5.72;;
56081;SDS011;41957;52.060;5.138;2022-11-15T07:52:11;14.50;;;5.20;;
56081;SDS011;41957;52.060;5.138;2022-11-15T07:54:37;15.20;;;5.45;;
56081;SDS011;41957;52.060;5.138;2022-11-15T07:57:02;15.63;;;5.28;;
56081;SDS011;41957;52.060;5.138;2022-11-15T07:59:27;14.18;;;5.28;;
56081;SDS011;41957;52.060;5.138;2022-11-15T08:01:53;13.00;;;4.82;;
56081;SDS011;41957;52.060;5.138;2022-11-15T08:04:18;17.13;;;5.43;;
56081;SDS011;41957;52.060;5.138;2022-11-15T08:06:44;13.63;;;5.30;;
56081;SDS011;41957;52.060;5.138;2022-11-15T08:09:09;14.00;;;5.47;;
56081;SDS011;41957;52.060;5.138;2022-11-15T08:11:34;13.40;;;5.38;;
56081;SDS011;41957;52.060;5.138;2022-11-15T08:13:59;16.48;;;5.50;;
56081;SDS011;41957;52.060;5.138;2022-11-15T08:16:25;14.05;;;4.85;;
56081;SDS011;41957;52.060;5.138;2022-11-15T08:18:50;13.32;;;4.90;;
56081;SDS011;41957;52.060;5.138;2022-11-15T08:21:17;13.80;;;4.75;;
56081;SDS011;41957;52.060;5.138;2022-11-15T08:23:44;12.70;;;4.75;;
56081;SDS011;41957;52.060;5.138;2022-11-15T08:26:10;14.00;;;4.88;;
56081;SDS011;41957;52.060;5.138;2022-11-15T08:28:35;13.13;;;4.57;;
56081;SDS011;41957;52.060;5.138;2022-11-15T08:31:01;13.00;;;4.22;;
56081;SDS011;41957;52.060;5.138;2022-11-15T08:33:27;13.07;;;4.80;;
56081;SDS011;41957;52.060;5.138;2022-11-15T08:35:55;14.00;;;5.28;;
56081;SDS011;41957;52.060;5.138;2022-11-15T08:38:22;12.88;;;5.25;;
56081;SDS011;41957;52.060;5.138;2022-11-15T08:40:47;11.93;;;4.55;;
56081;SDS011;41957;52.060;5.138;2022-11-15T08:43:13;14.57;;;5.07;;
56081;SDS011;41957;52.060;5.138;2022-11-15T08:45:38;13.90;;;5.00;;
56081;SDS011;41957;52.060;5.138;2022-11-15T08:48:03;12.80;;;4.32;;
56081;SDS011;41957;52.060;5.138;2022-11-15T08:50:29;12.40;;;4.43;;
56081;SDS011;41957;52.060;5.138;2022-11-15T08:52:54;12.55;;;4.60;;
56081;SDS011;41957;52.060;5.138;2022-11-15T08:55:20;12.30;;;4.15;;
56081;SDS011;41957;52.060;5.138;2022-11-15T08:57:45;11.43;;;4.18;;
56081;SDS011;41957;52.060;5.138;2022-11-15T09:00:11;11.32;;;4.10;;
56081;SDS011;41957;52.060;5.138;2022-11-15T09:02:38;17.65;;;5.18;;
56081;SDS011;41957;52.060;5.138;2022-11-15T09:05:05;15.98;;;4.30;;
56081;SDS011;41957;52.060;5.138;2022-11-15T09:07:31;13.63;;;4.40;;
56081;SDS011;41957;52.060;5.138;2022-11-15T09:09:56;13.48;;;4.53;;
56081;SDS011;41957;52.060;5.138;2022-11-15T09:12:22;14.77;;;4.45;;
56081;SDS011;41957;52.060;5.138;2022-11-15T09:14:49;12.13;;;3.92;;
56081;SDS011;41957;52.060;5.138;2022-11-15T09:17:14;12.02;;;4.35;;
56081;SDS011;41957;52.060;5.138;2022-11-15T09:19:39;13.30;;;4.13;;
56081;SDS011;41957;52.060;5.138;2022-11-15T09:22:06;14.02;;;4.30;;
56081;SDS011;41957;52.060;5.138;2022-11-15T09:24:32;11.35;;;3.88;;
56081;SDS011;41957;52.060;5.138;2022-11-15T09:26:57;12.70;;;4.15;;
56081;SDS011;41957;52.060;5.138;2022-11-15T09:29:23;11.90;;;4.18;;
56081;SDS011;41957;52.060;5.138;2022-11-15T09:31:48;15.13;;;4.68;;
56081;SDS011;41957;52.060;5.138;2022-11-15T09:34:13;13.55;;;4.00;;
56081;SDS011;41957;52.060;5.138;2022-11-15T09:36:39;13.55;;;4.30;;
56081;SDS011;41957;52.060;5.138;2022-11-15T09:39:04;11.00;;;3.97;;
56081;SDS011;41957;52.060;5.138;2022-11-15T09:41:36;13.20;;;4.20;;
56081;SDS011;41957;52.060;5.138;2022-11-15T09:50:01;13.05;;;3.83;;
56081;SDS011;41957;52.060;5.138;2022-11-15T09:52:33;11.68;;;3.70;;
56081;SDS011;41957;52.060;5.138;2022-11-15T09:55:01;12.32;;;3.92;;
56081;SDS011;41957;52.060;5.138;2022-11-15T10:00:15;13.25;;;3.78;;
56081;SDS011;41957;52.060;5.138;2022-11-15T10:05:38;10.90;;;3.42;;
56081;SDS011;41957;52.060;5.138;2022-11-15T10:08:11;11.13;;;3.40;;
56081;SDS011;41957;52.060;5.138;2022-11-15T10:10:49;15.15;;;3.72;;
56081;SDS011;41957;52.060;5.138;2022-11-15T10:13:23;12.43;;;3.50;;
56081;SDS011;41957;52.060;5.138;2022-11-15T10:15:51;11.43;;;3.40;;
56081;SDS011;41957;52.060;5.138;2022-11-15T10:18:28;11.02;;;3.38;;
56081;SDS011;41957;52.060;5.138;2022-11-15T10:21:19;14.07;;;3.97;;
56081;SDS011;41957;52.060;5.138;2022-11-15T10:23:47;9.77;;;3.17;;
56081;SDS011;41957;52.060;5.138;2022-11-15T10:26:14;11.48;;;3.70;;
56081;SDS011;41957;52.060;5.138;2022-11-15T10:28:41;11.00;;;3.70;;
56081;SDS011;41957;52.060;5.138;2022-11-15T10:31:26;11.38;;;3.30;;
56081;SDS011;41957;52.060;5.138;2022-11-15T10:36:36;12.40;;;3.63;;
56081;SDS011;41957;52.060;5.138;2022-11-15T10:39:01;10.57;;;3.08;;
56081;SDS011;41957;52.060;5.138;2022-11-15T10:50:00;9.30;;;3.10;;
56081;SDS011;41957;52.060;5.138;2022-11-15T10:52:31;12.20;;;3.40;;
56081;SDS011;41957;52.060;5.138;2022-11-15T10:55:05;11.00;;;3.10;;
56081;SDS011;41957;52.060;5.138;2022-11-15T10:57:32;9.93;;;2.83;;
56081;SDS011;41957;52.060;5.138;2022-11-15T11:05:01;10.27;;;2.97;;
56081;SDS011;41957;52.060;5.138;2022-11-15T11:07:30;11.50;;;2.95;;
56081;SDS011;41957;52.060;5.138;2022-11-15T11:09:59;10.18;;;2.97;;
56081;SDS011;41957;52.060;5.138;2022-11-15T11:12:44;11.05;;;3.00;;
56081;SDS011;41957;52.060;5.138;2022-11-15T11:15:11;10.43;;;2.60;;
56081;SDS011;41957;52.060;5.138;2022-11-15T11:17:43;11.40;;;2.90;;
56081;SDS011;41957;52.060;5.138;2022-11-15T11:20:40;10.88;;;2.85;;
56081;SDS011;41957;52.060;5.138;2022-11-15T11:31:45;8.55;;;2.40;;
56081;SDS011;41957;52.060;5.138;2022-11-15T11:34:28;10.30;;;2.63;;
56081;SDS011;41957;52.060;5.138;2022-11-15T11:37:09;9.10;;;2.40;;
56081;SDS011;41957;52.060;5.138;2022-11-15T11:40:06;10.23;;;2.92;;
56081;SDS011;41957;52.060;5.138;2022-11-15T11:50:29;10.27;;;2.88;;
56081;SDS011;41957;52.060;5.138;2022-11-15T11:52:57;10.05;;;2.30;;
56081;SDS011;41957;52.060;5.138;2022-11-15T12:00:56;10.00;;;2.40;;
56081;SDS011;41957;52.060;5.138;2022-11-15T12:14:51;9.43;;;2.22;;
56081;SDS011;41957;52.060;5.138;2022-11-15T12:17:24;8.18;;;2.17;;
56081;SDS011;41957;52.060;5.138;2022-11-15T12:19:51;10.45;;;2.55;;
56081;SDS011;41957;52.060;5.138;2022-11-15T12:27:56;11.23;;;2.38;;
56081;SDS011;41957;52.060;5.138;2022-11-15T12:30:38;8.30;;;2.25;;
56081;SDS011;41957;52.060;5.138;2022-11-15T12:36:09;9.05;;;2.05;;
56081;SDS011;41957;52.060;5.138;2022-11-15T12:38:54;9.52;;;2.20;;
56081;SDS011;41957;52.060;5.138;2022-11-15T12:41:27;7.95;;;2.20;;
56081;SDS011;41957;52.060;5.138;2022-11-15T12:43:57;8.23;;;2.10;;
56081;SDS011;41957;52.060;5.138;2022-11-15T12:47:00;8.85;;;2.38;;
56081;SDS011;41957;52.060;5.138;2022-11-15T12:54:47;7.43;;;1.92;;
56081;SDS011;41957;52.060;5.138;2022-11-15T13:04:42;11.53;;;2.37;;
56081;SDS011;41957;52.060;5.138;2022-11-15T13:07:07;9.18;;;2.00;;
56081;SDS011;41957;52.060;5.138;2022-11-15T13:09:53;6.97;;;1.95;;
56081;SDS011;41957;52.060;5.138;2022-11-15T13:17:57;8.13;;;1.92;;
56081;SDS011;41957;52.060;5.138;2022-11-15T13:20:28;6.68;;;1.63;;
56081;SDS011;41957;52.060;5.138;2022-11-15T13:28:10;8.70;;;2.05;;
56081;SDS011;41957;52.060;5.138;2022-11-15T13:30:52;8.25;;;1.83;;
56081;SDS011;41957;52.060;5.138;2022-11-15T13:33:24;10.10;;;2.05;;
56081;SDS011;41957;52.060;5.138;2022-11-15T13:35:54;9.18;;;2.00;;
56081;SDS011;41957;52.060;5.138;2022-11-15T13:40:52;8.48;;;1.88;;
56081;SDS011;41957;52.060;5.138;2022-11-15T13:43:28;7.13;;;1.90;;
56081;SDS011;41957;52.060;5.138;2022-11-15T13:48:59;7.47;;;1.80;;
56081;SDS011;41957;52.060;5.138;2022-11-15T13:51:33;8.93;;;2.10;;
56081;SDS011;41957;52.060;5.138;2022-11-15T13:56:42;7.63;;;1.98;;
56081;SDS011;41957;52.060;5.138;2022-11-15T14:01:51;7.57;;;1.85;;
56081;SDS011;41957;52.060;5.138;2022-11-15T14:04:18;6.80;;;1.52;;
56081;SDS011;41957;52.060;5.138;2022-11-15T14:06:50;8.88;;;2.00;;
56081;SDS011;41957;52.060;5.138;2022-11-15T14:11:54;5.85;;;1.75;;
56081;SDS011;41957;52.060;5.138;2022-11-15T14:14:21;6.57;;;1.80;;
56081;SDS011;41957;52.060;5.138;2022-11-15T14:16:50;7.82;;;2.00;;
56081;SDS011;41957;52.060;5.138;2022-11-15T14:24:33;8.55;;;1.98;;
56081;SDS011;41957;52.060;5.138;2022-11-15T14:27:15;7.43;;;1.90;;
56081;SDS011;41957;52.060;5.138;2022-11-15T14:29:46;6.00;;;1.70;;
56081;SDS011;41957;52.060;5.138;2022-11-15T14:32:16;7.28;;;1.83;;
56081;SDS011;41957;52.060;5.138;2022-11-15T14:34:44;5.40;;;1.63;;
56081;SDS011;41957;52.060;5.138;2022-11-15T14:37:24;7.80;;;1.98;;
56081;SDS011;41957;52.060;5.138;2022-11-15T14:39:51;7.55;;;1.90;;
56081;SDS011;41957;52.060;5.138;2022-11-15T14:42:18;7.93;;;1.70;;
56081;SDS011;41957;52.060;5.138;2022-11-15T14:44:44;8.45;;;1.70;;
56081;SDS011;41957;52.060;5.138;2022-11-15T14:47:09;8.68;;;2.08;;
56081;SDS011;41957;52.060;5.138;2022-11-15T14:49:35;9.15;;;1.88;;
56081;SDS011;41957;52.060;5.138;2022-11-15T14:52:00;6.35;;;1.70;;
56081;SDS011;41957;52.060;5.138;2022-11-15T14:54:25;9.10;;;1.90;;
56081;SDS011;41957;52.060;5.138;2022-11-15T14:56:51;6.93;;;1.63;;
56081;SDS011;41957;52.060;5.138;2022-11-15T14:59:16;6.35;;;1.98;;
56081;SDS011;41957;52.060;5.138;2022-11-15T15:01:41;8.35;;;2.08;;
56081;SDS011;41957;52.060;5.138;2022-11-15T15:04:08;8.13;;;2.00;;
56081;SDS011;41957;52.060;5.138;2022-11-15T15:06:35;5.40;;;1.55;;
56081;SDS011;41957;52.060;5.138;2022-11-15T15:09:00;9.63;;;2.13;;
56081;SDS011;41957;52.060;5.138;2022-11-15T15:11:26;8.73;;;2.08;;
56081;SDS011;41957;52.060;5.138;2022-11-15T15:13:54;6.32;;;1.70;;
56081;SDS011;41957;52.060;5.138;2022-11-15T15:16:22;9.75;;;1.98;;
56081;SDS011;41957;52.060;5.138;2022-11-15T15:18:50;6.82;;;1.80;;
56081;SDS011;41957;52.060;5.138;2022-11-15T15:21:26;9.00;;;1.80;;
56081;SDS011;41957;52.060;5.138;2022-11-15T15:23:52;8.02;;;1.80;;
56081;SDS011;41957;52.060;5.138;2022-11-15T15:26:19;10.48;;;1.90;;
56081;SDS011;41957;52.060;5.138;2022-11-15T15:28:44;6.07;;;1.80;;
56081;SDS011;41957;52.060;5.138;2022-11-15T15:31:10;7.53;;;2.08;;
56081;SDS011;41957;52.060;5.138;2022-11-15T15:33:35;8.38;;;1.90;;
56081;SDS011;41957;52.060;5.138;2022-11-15T15:36:01;6.70;;;1.90;;
56081;SDS011;41957;52.060;5.138;2022-11-15T15:38:27;6.38;;;1.67;;
56081;SDS011;41957;52.060;5.138;2022-11-15T15:40:52;7.88;;;1.95;;
56081;SDS011;41957;52.060;5.138;2022-11-15T15:43:17;6.60;;;1.83;;
56081;SDS011;41957;52.060;5.138;2022-11-15T15:45:43;6.10;;;1.60;;
56081;SDS011;41957;52.060;5.138;2022-11-15T15:48:14;8.95;;;1.90;;
56081;SDS011;41957;52.060;5.138;2022-11-15T15:50:40;8.43;;;1.95;;
56081;SDS011;41957;52.060;5.138;2022-11-15T15:53:10;6.38;;;1.52;;
56081;SDS011;41957;52.060;5.138;2022-11-15T15:55:36;10.05;;;2.20;;
56081;SDS011;41957;52.060;5.138;2022-11-15T15:58:02;6.57;;;1.83;;
56081;SDS011;41957;52.060;5.138;2022-11-15T16:00:28;6.65;;;1.75;;
56081;SDS011;41957;52.060;5.138;2022-11-15T16:02:54;9.55;;;2.00;;
56081;SDS011;41957;52.060;5.138;2022-11-15T16:05:20;9.07;;;1.85;;
56081;SDS011;41957;52.060;5.138;2022-11-15T16:07:46;8.68;;;1.77;;
56081;SDS011;41957;52.060;5.138;2022-11-15T16:12:46;6.15;;;1.70;;
56081;SDS011;41957;52.060;5.138;2022-11-15T16:15:12;7.80;;;1.60;;
56081;SDS011;41957;52.060;5.138;2022-11-15T16:17:39;5.05;;;1.50;;
56081;SDS011;41957;52.060;5.138;2022-11-15T16:20:08;7.30;;;1.55;;
56081;SDS011;41957;52.060;5.138;2022-11-15T16:22:47;7.05;;;1.77;;
56081;SDS011;41957;52.060;5.138;2022-11-15T16:25:12;4.38;;;1.45;;
56081;SDS011;41957;52.060;5.138;2022-11-15T16:27:38;4.90;;;1.67;;
56081;SDS011;41957;52.060;5.138;2022-11-15T16:30:11;4.13;;;1.50;;
56081;SDS011;41957;52.060;5.138;2022-11-15T16:32:39;6.50;;;1.58;;
56081;SDS011;41957;52.060;5.138;2022-11-15T16:35:05;7.07;;;1.67;;
56081;SDS011;41957;52.060;5.138;2022-11-15T16:37:30;6.95;;;1.55;;
56081;SDS011;41957;52.060;5.138;2022-11-15T16:39:56;6.35;;;1.60;;
56081;SDS011;41957;52.060;5.138;2022-11-15T16:42:21;6.30;;;1.70;;
56081;SDS011;41957;52.060;5.138;2022-11-15T16:44:46;7.32;;;1.60;;
56081;SDS011;41957;52.060;5.138;2022-11-15T16:47:16;4.00;;;1.38;;
56081;SDS011;41957;52.060;5.138;2022-11-15T16:49:43;7.80;;;1.75;;
56081;SDS011;41957;52.060;5.138;2022-11-15T16:52:09;5.50;;;1.60;;
56081;SDS011;41957;52.060;5.138;2022-11-15T16:54:34;7.72;;;1.45;;
56081;SDS011;41957;52.060;5.138;2022-11-15T16:57:00;5.38;;;1.60;;
56081;SDS011;41957;52.060;5.138;2022-11-15T16:59:25;6.13;;;1.63;;
56081;SDS011;41957;52.060;5.138;2022-11-15T17:01:50;5.68;;;1.60;;
56081;SDS011;41957;52.060;5.138;2022-11-15T17:04:17;4.50;;;1.40;;
56081;SDS011;41957;52.060;5.138;2022-11-15T17:06:44;6.03;;;1.55;;
56081;SDS011;41957;52.060;5.138;2022-11-15T17:09:18;5.95;;;1.80;;
56081;SDS011;41957;52.060;5.138;2022-11-15T17:11:45;7.05;;;1.65;;
56081;SDS011;41957;52.060;5.138;2022-11-15T17:14:11;3.92;;;1.30;;
56081;SDS011;41957;52.060;5.138;2022-11-15T17:16:36;5.68;;;1.80;;
56081;SDS011;41957;52.060;5.138;2022-11-15T17:19:06;6.85;;;1.52;;
56081;SDS011;41957;52.060;5.138;2022-11-15T17:21:42;6.60;;;1.92;;
56081;SDS011;41957;52.060;5.138;2022-11-15T17:24:08;6.43;;;1.60;;
56081;SDS011;41957;52.060;5.138;2022-11-15T17:26:34;5.72;;;1.35;;